createdAt,value
2018-10-06T00:00:25.885Z,0
2018-10-06T00:01:35.454Z,0
2018-10-06T00:02:44.483Z,0
2018-10-06T00:03:54.326Z,0
2018-10-06T00:05:04.163Z,0
2018-10-06T00:06:13.192Z,0
2018-10-06T00:07:22.761Z,0
2018-10-06T00:08:32.601Z,0
2018-10-06T00:09:42.712Z,0
2018-10-06T00:10:52.273Z,0
2018-10-06T00:12:01.585Z,0
2018-10-06T00:13:11.157Z,0
2018-10-06T00:14:20.997Z,0
2018-10-06T00:15:30.576Z,0
2018-10-06T00:16:40.688Z,0
2018-10-06T00:17:50.532Z,0
2018-10-06T00:19:00.641Z,0
2018-10-06T00:20:09.671Z,0
2018-10-06T00:21:19.239Z,0
2018-10-06T00:22:29.081Z,0
2018-10-06T00:23:38.655Z,0
2018-10-06T00:24:48.552Z,0
2018-10-06T00:25:58.667Z,0
2018-10-06T00:27:08.505Z,0
2018-10-06T00:28:18.345Z,0
2018-10-06T00:29:27.917Z,0
2018-10-06T00:30:37.490Z,0
2018-10-06T00:31:47.324Z,0
2018-10-06T00:32:56.889Z,0
2018-10-06T00:34:07.001Z,0
2018-10-06T00:35:16.582Z,0
2018-10-06T00:36:26.744Z,0
2018-10-06T00:37:36.311Z,0
2018-10-06T00:38:46.151Z,0
2018-10-06T00:39:56.257Z,0
2018-10-06T00:41:06.375Z,0
2018-10-06T00:42:16.215Z,0
2018-10-06T00:43:25.781Z,0
2018-10-06T00:44:35.077Z,0
2018-10-06T00:45:44.918Z,0
2018-10-06T00:46:55.021Z,0
2018-10-06T00:48:04.912Z,0
2018-10-06T00:49:14.748Z,0
2018-10-06T00:50:24.323Z,0
2018-10-06T00:51:33.895Z,0
2018-10-06T00:52:44.005Z,0
2018-10-06T00:53:53.572Z,0
2018-10-06T00:55:03.412Z,0
2018-10-06T00:56:12.983Z,0
2018-10-06T00:57:22.281Z,0
2018-10-06T00:58:32.399Z,0
2018-10-06T00:59:42.510Z,0
2018-10-06T01:00:52.351Z,0
2018-10-06T01:02:01.926Z,0
2018-10-06T01:03:11.774Z,0
2018-10-06T01:04:21.888Z,0
2018-10-06T01:05:31.723Z,0
2018-10-06T01:06:41.019Z,0
2018-10-06T01:07:50.854Z,0
2018-10-06T01:09:00.695Z,0
2018-10-06T01:10:10.533Z,0
2018-10-06T01:11:20.640Z,0
2018-10-06T01:12:30.482Z,0
2018-10-06T01:13:40.589Z,0
2018-10-06T01:14:50.160Z,0
2018-10-06T01:16:00.000Z,0
2018-10-06T01:17:09.035Z,0
2018-10-06T01:18:18.874Z,0
2018-10-06T01:19:28.178Z,0
2018-10-06T01:20:37.741Z,0
2018-10-06T01:21:47.585Z,0
2018-10-06T01:22:57.700Z,0
2018-10-06T01:24:06.994Z,0
2018-10-06T01:25:16.293Z,0
2018-10-06T01:26:26.399Z,0
2018-10-06T01:27:36.234Z,0
2018-10-06T01:28:45.802Z,0
2018-10-06T01:29:55.644Z,0
2018-10-06T01:31:05.479Z,0
2018-10-06T01:32:15.317Z,0
2018-10-06T01:33:24.616Z,0
2018-10-06T01:34:34.448Z,0
2018-10-06T01:35:44.556Z,0
2018-10-06T01:36:54.399Z,0
2018-10-06T01:38:04.239Z,0
2018-10-06T01:39:13.810Z,0
2018-10-06T01:40:23.108Z,0
2018-10-06T01:41:32.950Z,0
2018-10-06T01:42:42.247Z,0
2018-10-06T01:43:52.084Z,0
2018-10-06T01:45:01.661Z,0
2018-10-06T01:46:11.283Z,0
2018-10-06T01:47:21.388Z,0
2018-10-06T01:48:30.701Z,0
2018-10-06T01:49:40.541Z,0
2018-10-06T01:50:50.713Z,0
2018-10-06T01:52:00.952Z,0
2018-10-06T01:53:10.792Z,0
2018-10-06T01:54:20.354Z,0
2018-10-06T01:55:29.657Z,0
2018-10-06T01:56:39.494Z,0
2018-10-06T01:57:49.336Z,0
2018-10-06T01:58:58.908Z,0
2018-10-06T02:00:08.484Z,0
2018-10-06T02:01:18.320Z,0
2018-10-06T02:02:28.431Z,0
2018-10-06T02:03:38.276Z,0
2018-10-06T02:04:48.393Z,0
2018-10-06T02:05:58.510Z,0
2018-10-06T02:07:08.358Z,0
2018-10-06T02:08:18.198Z,0
2018-10-06T02:09:27.767Z,0
2018-10-06T02:10:37.881Z,0
2018-10-06T02:11:47.449Z,0
2018-10-06T02:12:57.583Z,0
2018-10-06T02:14:07.416Z,0
2018-10-06T02:15:17.543Z,0
2018-10-06T02:16:27.437Z,0
2018-10-06T02:17:37.277Z,0
2018-10-06T02:18:47.392Z,0
2018-10-06T02:19:57.236Z,0
2018-10-06T02:21:07.372Z,0
2018-10-06T02:22:17.209Z,0
2018-10-06T02:23:26.511Z,0
2018-10-06T02:24:36.080Z,0
2018-10-06T02:25:45.643Z,0
2018-10-06T02:26:55.212Z,0
2018-10-06T02:28:04.512Z,0
2018-10-06T02:29:14.349Z,0
2018-10-06T02:30:24.065Z,0
2018-10-06T02:31:33.908Z,0
2018-10-06T02:32:43.747Z,0
2018-10-06T02:33:53.859Z,0
2018-10-06T02:35:03.450Z,0
2018-10-06T02:36:13.029Z,0
2018-10-06T02:37:22.867Z,0
2018-10-06T02:38:32.180Z,0
2018-10-06T02:39:41.744Z,0
2018-10-06T02:40:51.581Z,0
2018-10-06T02:42:01.416Z,0
2018-10-06T02:43:10.721Z,0
2018-10-06T02:44:20.841Z,0
2018-10-06T02:45:29.871Z,0
2018-10-06T02:46:39.707Z,0
2018-10-06T02:47:49.547Z,0
2018-10-06T02:48:59.667Z,0
2018-10-06T02:50:09.252Z,0
2018-10-06T02:51:19.368Z,0
2018-10-06T02:52:29.223Z,0
2018-10-06T02:53:38.791Z,0
2018-10-06T02:54:48.354Z,0
2018-10-06T02:55:58.249Z,0
2018-10-06T02:57:07.813Z,0
2018-10-06T02:58:17.663Z,0
2018-10-06T02:59:27.511Z,0
2018-10-06T03:00:37.636Z,0
2018-10-06T03:01:47.767Z,0
2018-10-06T03:02:57.607Z,0
2018-10-06T03:04:07.455Z,0
2018-10-06T03:05:17.286Z,0
2018-10-06T03:06:27.131Z,0
2018-10-06T03:07:36.747Z,0
2018-10-06T03:08:46.596Z,0
2018-10-06T03:09:56.432Z,0
2018-10-06T03:11:05.999Z,0
2018-10-06T03:12:15.834Z,0
2018-10-06T03:13:26.044Z,0
2018-10-06T03:14:35.892Z,0
2018-10-06T03:15:45.744Z,0
2018-10-06T03:16:55.325Z,0
2018-10-06T03:18:04.892Z,0
2018-10-06T03:19:14.507Z,0
2018-10-06T03:20:24.072Z,0
2018-10-06T03:21:34.177Z,0
2018-10-06T03:22:43.751Z,0
2018-10-06T03:23:53.052Z,0
2018-10-06T03:25:02.888Z,0
2018-10-06T03:26:12.187Z,0
2018-10-06T03:27:22.294Z,0
2018-10-06T03:28:32.415Z,0
2018-10-06T03:29:42.587Z,0
2018-10-06T03:30:52.468Z,0
2018-10-06T03:32:02.053Z,0
2018-10-06T03:33:11.912Z,0
2018-10-06T03:34:21.483Z,0
2018-10-06T03:35:31.059Z,0
2018-10-06T03:36:40.897Z,0
2018-10-06T03:37:50.486Z,0
2018-10-06T03:39:00.340Z,0
2018-10-06T03:40:09.642Z,0
2018-10-06T03:41:19.487Z,0
2018-10-06T03:42:28.837Z,0
2018-10-06T03:43:38.138Z,0
2018-10-06T03:44:47.985Z,0
2018-10-06T03:45:57.285Z,0
2018-10-06T03:47:06.856Z,0
2018-10-06T03:48:16.168Z,0
2018-10-06T03:49:26.311Z,0
2018-10-06T03:50:36.151Z,0
2018-10-06T03:51:45.993Z,0
2018-10-06T03:52:55.562Z,0
2018-10-06T03:54:05.369Z,0
2018-10-06T03:55:14.784Z,0
2018-10-06T03:56:24.626Z,0
2018-10-06T03:57:34.754Z,0
2018-10-06T03:58:44.324Z,0
2018-10-06T03:59:53.895Z,0
2018-10-06T04:01:03.745Z,0
2018-10-06T04:02:13.868Z,0
2018-10-06T04:03:23.717Z,0
2018-10-06T04:04:33.291Z,0
2018-10-06T04:05:42.857Z,0
2018-10-06T04:06:52.164Z,0
2018-10-06T04:08:02.004Z,0
2018-10-06T04:09:11.856Z,0
2018-10-06T04:10:21.433Z,0
2018-10-06T04:11:31.266Z,0
2018-10-06T04:12:41.380Z,0
2018-10-06T04:13:50.953Z,0
2018-10-06T04:15:01.095Z,0
2018-10-06T04:16:11.205Z,0
2018-10-06T04:17:21.310Z,0
2018-10-06T04:18:30.617Z,0
2018-10-06T04:19:39.923Z,0
2018-10-06T04:20:50.040Z,0
2018-10-06T04:21:59.876Z,0
2018-10-06T04:23:09.726Z,0
2018-10-06T04:24:19.834Z,0
2018-10-06T04:25:29.683Z,0
2018-10-06T04:26:38.988Z,0
2018-10-06T04:27:49.101Z,0
2018-10-06T04:28:59.221Z,0
2018-10-06T04:30:09.059Z,0
2018-10-06T04:31:18.901Z,0
2018-10-06T04:32:28.744Z,0
2018-10-06T04:33:38.858Z,0
2018-10-06T04:34:48.427Z,0
2018-10-06T04:35:58.276Z,0
2018-10-06T04:37:08.120Z,0
2018-10-06T04:38:18.232Z,0
2018-10-06T04:39:27.803Z,0
2018-10-06T04:40:37.915Z,0
2018-10-06T04:41:48.018Z,0
2018-10-06T04:42:57.860Z,0
2018-10-06T04:44:07.968Z,0
2018-10-06T04:45:18.074Z,0
2018-10-06T04:46:28.186Z,0
2018-10-06T04:47:37.754Z,0
2018-10-06T04:48:47.870Z,0
2018-10-06T04:49:57.986Z,0
2018-10-06T04:51:07.285Z,0
2018-10-06T04:52:17.181Z,0
2018-10-06T04:53:26.871Z,0
2018-10-06T04:54:36.715Z,0
2018-10-06T04:55:46.554Z,0
2018-10-06T04:56:56.667Z,0
2018-10-06T04:58:06.779Z,0
2018-10-06T04:59:16.348Z,0
2018-10-06T05:00:26.007Z,0
2018-10-06T05:01:35.305Z,0
2018-10-06T05:02:44.604Z,4
2018-10-06T05:03:54.447Z,4
2018-10-06T05:05:04.562Z,0
2018-10-06T05:06:14.415Z,4
2018-10-06T05:07:23.982Z,4
2018-10-06T05:08:34.089Z,4
2018-10-06T05:09:43.932Z,4
2018-10-06T05:10:53.574Z,8
2018-10-06T05:12:03.426Z,8
2018-10-06T05:13:12.999Z,8
2018-10-06T05:14:23.106Z,12
2018-10-06T05:15:32.967Z,16
2018-10-06T05:16:43.074Z,20
2018-10-06T05:17:52.371Z,24
2018-10-06T05:19:02.479Z,28
2018-10-06T05:20:12.594Z,36
2018-10-06T05:21:22.169Z,40
2018-10-06T05:22:32.008Z,48
2018-10-06T05:23:42.623Z,56
2018-10-06T05:24:52.630Z,68
2018-10-06T05:26:02.479Z,80
2018-10-06T05:27:12.323Z,96
2018-10-06T05:28:22.166Z,108
2018-10-06T05:29:31.467Z,128
2018-10-06T05:30:41.307Z,140
2018-10-06T05:31:50.872Z,164
2018-10-06T05:33:00.180Z,180
2018-10-06T05:34:10.358Z,204
2018-10-06T05:35:20.695Z,224
2018-10-06T05:36:30.814Z,248
2018-10-06T05:37:40.662Z,272
2018-10-06T05:38:50.237Z,292
2018-10-06T05:39:59.805Z,312
2018-10-06T05:41:09.477Z,340
2018-10-06T05:42:19.322Z,364
2018-10-06T05:43:29.167Z,396
2018-10-06T05:44:39.010Z,432
2018-10-06T05:45:48.582Z,468
2018-10-06T05:46:58.685Z,500
2018-10-06T05:48:08.791Z,532
2018-10-06T05:49:18.908Z,564
2018-10-06T05:50:29.032Z,604
2018-10-06T05:51:38.877Z,636
2018-10-06T05:52:47.902Z,672
2018-10-06T05:53:58.011Z,704
2018-10-06T05:55:07.302Z,744
2018-10-06T05:56:17.145Z,780
2018-10-06T05:57:26.989Z,816
2018-10-06T05:58:37.101Z,848
2018-10-06T05:59:46.974Z,880
2018-10-06T06:00:57.101Z,908
2018-10-06T06:02:06.949Z,940
2018-10-06T06:03:16.520Z,972
2018-10-06T06:04:25.546Z,1000
2018-10-06T06:05:34.865Z,1036
2018-10-06T06:06:44.706Z,1068
2018-10-06T06:07:54.825Z,1100
2018-10-06T06:09:04.942Z,1128
2018-10-06T06:10:14.504Z,1160
2018-10-06T06:11:24.349Z,1192
2018-10-06T06:12:34.199Z,1216
2018-10-06T06:13:43.777Z,1236
2018-10-06T06:14:53.889Z,1264
2018-10-06T06:16:03.994Z,1296
2018-10-06T06:17:13.570Z,1332
2018-10-06T06:18:23.688Z,1368
2018-10-06T06:19:33.806Z,1392
2018-10-06T06:20:43.927Z,1416
2018-10-06T06:21:53.230Z,1440
2018-10-06T06:23:03.075Z,1456
2018-10-06T06:24:12.918Z,1484
2018-10-06T06:25:23.051Z,1508
2018-10-06T06:26:33.167Z,1532
2018-10-06T06:27:42.736Z,1552
2018-10-06T06:28:52.588Z,1576
2018-10-06T06:30:02.429Z,1600
2018-10-06T06:31:12.496Z,1624
2018-10-06T06:32:23.113Z,1644
2018-10-06T06:33:32.382Z,1668
2018-10-06T06:34:41.950Z,1684
2018-10-06T06:35:51.521Z,1700
2018-10-06T06:37:00.277Z,1712
2018-10-06T06:38:10.416Z,1728
2018-10-06T06:39:20.340Z,1744
2018-10-06T06:40:30.169Z,1756
2018-10-06T06:41:40.278Z,1764
2018-10-06T06:42:50.390Z,1776
2018-10-06T06:44:00.029Z,1788
2018-10-06T06:45:10.170Z,1800
2018-10-06T06:46:20.076Z,1812
2018-10-06T06:47:29.369Z,1832
2018-10-06T06:48:39.473Z,1848
2018-10-06T06:49:49.048Z,1872
2018-10-06T06:50:58.345Z,1892
2018-10-06T06:52:08.461Z,1908
2018-10-06T06:53:18.322Z,1932
2018-10-06T06:54:27.894Z,1948
2018-10-06T06:55:38.004Z,1968
2018-10-06T06:56:47.572Z,1984
2018-10-06T06:57:57.406Z,2008
2018-10-06T06:59:07.247Z,2028
2018-10-06T07:00:16.279Z,2044
2018-10-06T07:01:26.384Z,2060
2018-10-06T07:02:36.230Z,2068
2018-10-06T07:03:45.796Z,2076
2018-10-06T07:04:55.920Z,2080
2018-10-06T07:06:06.032Z,2096
2018-10-06T07:07:16.149Z,2100
2018-10-06T07:08:25.993Z,2104
2018-10-06T07:09:35.560Z,2104
2018-10-06T07:10:45.398Z,2100
2018-10-06T07:11:54.744Z,2108
2018-10-06T07:13:04.597Z,2112
2018-10-06T07:14:14.754Z,2124
2018-10-06T07:15:24.322Z,2128
2018-10-06T07:16:34.439Z,2140
2018-10-06T07:17:44.557Z,2148
2018-10-06T07:18:54.404Z,2152
2018-10-06T07:20:03.430Z,2164
2018-10-06T07:21:13.545Z,2176
2018-10-06T07:22:23.657Z,2196
2018-10-06T07:23:33.821Z,2216
2018-10-06T07:24:43.448Z,2224
2018-10-06T07:25:53.290Z,2236
2018-10-06T07:27:02.321Z,2248
2018-10-06T07:28:12.441Z,2252
2018-10-06T07:29:22.560Z,2276
2018-10-06T07:30:32.411Z,2292
2018-10-06T07:31:41.176Z,2308
2018-10-06T07:32:51.014Z,2324
2018-10-06T07:34:00.854Z,2332
2018-10-06T07:35:10.708Z,2336
2018-10-06T07:36:20.549Z,2360
2018-10-06T07:37:30.392Z,2384
2018-10-06T07:38:40.504Z,2396
2018-10-06T07:39:50.347Z,2404
2018-10-06T07:40:59.379Z,2416
2018-10-06T07:42:09.220Z,2420
2018-10-06T07:43:18.529Z,2424
2018-10-06T07:44:28.107Z,2424
2018-10-06T07:45:37.685Z,2432
2018-10-06T07:46:47.263Z,2436
2018-10-06T07:47:57.377Z,2448
2018-10-06T07:49:07.232Z,2456
2018-10-06T07:50:17.076Z,2468
2018-10-06T07:51:26.914Z,2480
2018-10-06T07:52:36.808Z,2496
2018-10-06T07:53:46.374Z,2512
2018-10-06T07:54:55.947Z,2500
2018-10-06T07:56:06.055Z,2500
2018-10-06T07:57:16.180Z,2512
2018-10-06T07:58:25.823Z,2532
2018-10-06T07:59:36.066Z,2544
2018-10-06T08:00:45.687Z,2572
2018-10-06T08:01:55.553Z,2600
2018-10-06T08:03:05.127Z,2616
2018-10-06T08:04:14.699Z,2640
2018-10-06T08:05:24.267Z,2652
2018-10-06T08:06:34.504Z,2672
2018-10-06T08:07:44.772Z,2688
2018-10-06T08:08:54.620Z,2692
2018-10-06T08:10:03.916Z,2696
2018-10-06T08:11:13.487Z,2704
2018-10-06T08:12:23.062Z,2696
2018-10-06T08:13:32.900Z,2684
2018-10-06T08:14:42.745Z,2676
2018-10-06T08:15:52.320Z,2688
2018-10-06T08:17:01.896Z,2708
2018-10-06T08:18:11.737Z,2748
2018-10-06T08:19:21.311Z,2764
2018-10-06T08:20:30.888Z,2780
2018-10-06T08:21:40.732Z,2796
2018-10-06T08:22:50.561Z,2808
2018-10-06T08:24:00.400Z,2808
2018-10-06T08:25:10.245Z,2804
2018-10-06T08:26:19.823Z,2796
2018-10-06T08:27:29.932Z,2808
2018-10-06T08:28:39.505Z,2808
2018-10-06T08:29:49.084Z,2816
2018-10-06T08:30:58.654Z,2820
2018-10-06T08:32:08.506Z,2824
2018-10-06T08:33:18.733Z,2824
2018-10-06T08:34:28.583Z,2820
2018-10-06T08:35:38.696Z,2816
2018-10-06T08:36:48.554Z,2812
2018-10-06T08:37:58.129Z,2776
2018-10-06T08:39:07.705Z,2764
2018-10-06T08:40:17.547Z,2764
2018-10-06T08:41:27.386Z,2764
2018-10-06T08:42:36.803Z,2768
2018-10-06T08:43:46.726Z,2788
2018-10-06T08:44:56.570Z,2808
2018-10-06T08:46:06.411Z,2832
2018-10-06T08:47:16.529Z,2864
2018-10-06T08:48:26.416Z,2892
2018-10-06T08:49:36.262Z,2940
2018-10-06T08:50:46.124Z,2976
2018-10-06T08:51:55.969Z,2996
2018-10-06T08:53:05.805Z,3004
2018-10-06T08:54:15.103Z,3024
2018-10-06T08:55:25.205Z,3044
2018-10-06T08:56:35.594Z,3084
2018-10-06T08:57:45.171Z,3104
2018-10-06T08:58:55.009Z,3100
2018-10-06T09:00:04.595Z,3116
2018-10-06T09:01:14.717Z,3104
2018-10-06T09:02:24.559Z,3084
2018-10-06T09:03:34.405Z,3088
2018-10-06T09:04:44.247Z,3136
2018-10-06T09:05:53.826Z,3148
2018-10-06T09:07:03.829Z,3220
2018-10-06T09:08:13.409Z,3264
2018-10-06T09:09:22.990Z,3280
2018-10-06T09:10:32.567Z,3288
2018-10-06T09:11:42.411Z,3280
2018-10-06T09:12:52.260Z,3284
2018-10-06T09:14:01.617Z,3296
2018-10-06T09:15:11.192Z,3284
2018-10-06T09:16:21.303Z,3292
2018-10-06T09:17:31.421Z,3296
2018-10-06T09:18:40.458Z,3280
2018-10-06T09:19:49.592Z,3292
2018-10-06T09:20:59.710Z,3316
2018-10-06T09:22:09.285Z,3344
2018-10-06T09:23:18.857Z,3360
2018-10-06T09:24:27.888Z,3372
2018-10-06T09:25:38.001Z,3396
2018-10-06T09:26:47.847Z,3396
2018-10-06T09:27:57.420Z,3384
2018-10-06T09:29:06.992Z,3356
2018-10-06T09:30:16.834Z,3348
2018-10-06T09:31:26.677Z,3356
2018-10-06T09:32:36.517Z,3364
2018-10-06T09:33:46.360Z,3376
2018-10-06T09:34:56.473Z,3408
2018-10-06T09:36:06.319Z,3416
2018-10-06T09:37:16.164Z,3444
2018-10-06T09:38:26.280Z,3452
2018-10-06T09:39:36.117Z,3460
2018-10-06T09:40:45.691Z,3464
2018-10-06T09:41:55.181Z,3456
2018-10-06T09:43:05.360Z,3456
2018-10-06T09:44:14.936Z,3456
2018-10-06T09:45:24.516Z,3436
2018-10-06T09:46:34.366Z,3436
2018-10-06T09:47:43.937Z,3440
2018-10-06T09:48:53.778Z,3424
2018-10-06T09:50:03.106Z,3420
2018-10-06T09:51:12.951Z,3404
2018-10-06T09:52:22.530Z,3416
2018-10-06T09:53:32.689Z,3424
2018-10-06T09:54:42.594Z,3436
2018-10-06T09:55:52.174Z,3428
2018-10-06T09:57:02.020Z,3424
2018-10-06T09:58:11.321Z,3424
2018-10-06T09:59:20.634Z,3412
2018-10-06T10:00:30.503Z,3396
2018-10-06T10:01:39.812Z,3372
2018-10-06T10:02:49.380Z,3360
2018-10-06T10:03:59.225Z,3348
2018-10-06T10:05:08.799Z,3316
2018-10-06T10:06:18.370Z,3300
2018-10-06T10:07:27.939Z,3296
2018-10-06T10:08:37.784Z,3300
2018-10-06T10:09:48.156Z,3300
2018-10-06T10:10:58.475Z,3304
2018-10-06T10:12:08.387Z,3332
2018-10-06T10:13:18.234Z,3368
2018-10-06T10:14:27.810Z,3392
2018-10-06T10:15:37.821Z,3432
2018-10-06T10:16:47.665Z,3460
2018-10-06T10:17:58.617Z,3448
2018-10-06T10:19:08.450Z,3428
2018-10-06T10:20:18.021Z,3428
2018-10-06T10:21:27.328Z,3444
2018-10-06T10:22:37.397Z,3448
2018-10-06T10:23:48.206Z,3424
2018-10-06T10:24:58.569Z,3420
2018-10-06T10:26:08.146Z,3420
2018-10-06T10:27:17.724Z,3428
2018-10-06T10:28:27.895Z,3440
2018-10-06T10:29:37.854Z,3460
2018-10-06T10:30:47.430Z,3472
2018-10-06T10:31:57.283Z,3488
2018-10-06T10:33:07.132Z,3488
2018-10-06T10:34:16.436Z,3496
2018-10-06T10:35:26.598Z,3524
2018-10-06T10:36:36.453Z,3500
2018-10-06T10:37:46.026Z,3492
2018-10-06T10:38:55.614Z,3508
2018-10-06T10:40:05.188Z,3532
2018-10-06T10:41:15.309Z,3548
2018-10-06T10:42:24.612Z,3564
2018-10-06T10:43:34.186Z,3580
2018-10-06T10:44:44.319Z,3592
2018-10-06T10:45:53.906Z,3588
2018-10-06T10:47:03.752Z,3624
2018-10-06T10:48:13.228Z,3628
2018-10-06T10:49:23.541Z,3600
2018-10-06T10:50:33.308Z,3620
2018-10-06T10:51:43.458Z,3648
2018-10-06T10:52:53.030Z,3704
2018-10-06T10:54:03.141Z,3756
2018-10-06T10:55:12.717Z,3768
2018-10-06T10:56:22.835Z,3792
2018-10-06T10:57:33.119Z,3848
2018-10-06T10:58:42.743Z,3896
2018-10-06T10:59:53.083Z,3924
2018-10-06T11:01:02.644Z,3932
2018-10-06T11:02:12.910Z,3936
2018-10-06T11:03:23.024Z,3972
2018-10-06T11:04:32.600Z,3980
2018-10-06T11:05:42.507Z,4020
2018-10-06T11:06:52.078Z,4080
2018-10-06T11:08:01.660Z,4140
2018-10-06T11:09:11.240Z,4128
2018-10-06T11:10:21.151Z,4136
2018-10-06T11:11:31.260Z,4224
2018-10-06T11:12:41.102Z,4284
2018-10-06T11:13:50.143Z,4300
2018-10-06T11:15:00.259Z,4284
2018-10-06T11:16:09.306Z,4248
2018-10-06T11:17:19.079Z,4244
2018-10-06T11:18:29.196Z,4280
2018-10-06T11:19:39.315Z,4292
2018-10-06T11:20:48.894Z,4300
2018-10-06T11:21:58.472Z,4300
2018-10-06T11:23:07.782Z,4296
2018-10-06T11:24:17.084Z,4304
2018-10-06T11:25:26.975Z,4320
2018-10-06T11:26:36.573Z,4176
2018-10-06T11:27:46.421Z,4236
2018-10-06T11:28:55.724Z,4284
2018-10-06T11:30:05.300Z,4376
2018-10-06T11:31:15.417Z,4376
2018-10-06T11:32:25.534Z,4392
2018-10-06T11:33:35.430Z,4420
2018-10-06T11:34:45.003Z,4380
2018-10-06T11:35:55.121Z,4344
2018-10-06T11:37:04.969Z,4300
2018-10-06T11:38:14.570Z,4300
2018-10-06T11:39:24.602Z,4344
2018-10-06T11:40:33.645Z,4392
2018-10-06T11:41:43.236Z,4488
2018-10-06T11:42:53.081Z,4584
2018-10-06T11:44:02.930Z,4684
2018-10-06T11:45:12.239Z,4860
2018-10-06T11:46:21.817Z,5840
2018-10-06T11:47:31.661Z,6920
2018-10-06T11:48:40.966Z,5324
2018-10-06T11:49:50.670Z,6372
2018-10-06T11:51:00.271Z,6872
2018-10-06T11:52:09.853Z,6128
2018-10-06T11:53:19.705Z,8324
2018-10-06T11:54:29.007Z,17120
2018-10-06T11:55:38.582Z,19712
2018-10-06T11:56:48.701Z,19488
2018-10-06T11:57:58.543Z,13152
2018-10-06T11:59:08.396Z,10520
2018-10-06T12:00:18.378Z,9500
2018-10-06T12:01:29.109Z,6668
2018-10-06T12:02:38.413Z,6284
2018-10-06T12:03:48.527Z,6392
2018-10-06T12:04:58.427Z,6060
2018-10-06T12:06:07.799Z,7448
2018-10-06T12:07:17.660Z,7056
2018-10-06T12:08:27.239Z,5512
2018-10-06T12:09:36.824Z,5616
2018-10-06T12:10:46.964Z,5816
2018-10-06T12:11:56.268Z,5900
2018-10-06T12:13:06.390Z,6468
2018-10-06T12:14:16.247Z,6064
2018-10-06T12:15:26.098Z,5476
2018-10-06T12:16:36.223Z,5476
2018-10-06T12:17:46.074Z,5440
2018-10-06T12:18:56.193Z,5392
2018-10-06T12:20:05.829Z,5436
2018-10-06T12:21:15.082Z,5516
2018-10-06T12:22:24.655Z,5428
2018-10-06T12:23:34.285Z,5340
2018-10-06T12:24:43.588Z,5500
2018-10-06T12:25:53.800Z,5784
2018-10-06T12:27:04.040Z,6908
2018-10-06T12:28:13.893Z,10920
2018-10-06T12:29:23.464Z,8716
2018-10-06T12:30:33.580Z,6372
2018-10-06T12:31:43.432Z,12316
2018-10-06T12:32:53.279Z,9384
2018-10-06T12:34:03.132Z,6676
2018-10-06T12:35:13.433Z,5936
2018-10-06T12:36:23.569Z,6388
2018-10-06T12:37:33.708Z,7968
2018-10-06T12:38:43.834Z,8408
2018-10-06T12:39:53.414Z,7920
2018-10-06T12:41:03.263Z,6644
2018-10-06T12:42:13.756Z,6624
2018-10-06T12:43:23.407Z,7020
2018-10-06T12:44:32.985Z,6788
2018-10-06T12:45:42.828Z,6864
2018-10-06T12:46:52.679Z,6848
2018-10-06T12:48:02.265Z,8044
2018-10-06T12:49:11.843Z,7652
2018-10-06T12:50:21.692Z,8500
2018-10-06T12:51:31.534Z,10964
2018-10-06T12:52:41.212Z,9168
2018-10-06T12:53:51.344Z,7256
2018-10-06T12:55:01.196Z,6932
2018-10-06T12:56:10.775Z,6856
2018-10-06T12:57:20.083Z,7052
2018-10-06T12:58:29.442Z,6836
2018-10-06T12:59:39.019Z,6772
2018-10-06T13:00:48.874Z,6928
2018-10-06T13:01:58.459Z,7020
2018-10-06T13:03:08.040Z,6920
2018-10-06T13:04:18.159Z,7076
2018-10-06T13:05:28.003Z,7160
2018-10-06T13:06:38.124Z,7344
2018-10-06T13:07:48.249Z,7192
2018-10-06T13:08:57.831Z,7292
2018-10-06T13:10:07.952Z,7548
2018-10-06T13:11:17.260Z,7508
2018-10-06T13:12:26.568Z,7216
2018-10-06T13:13:36.416Z,7256
2018-10-06T13:14:46.263Z,7956
2018-10-06T13:15:56.386Z,8000
2018-10-06T13:17:06.238Z,7924
2018-10-06T13:18:16.082Z,7808
2018-10-06T13:19:25.923Z,7716
2018-10-06T13:20:36.042Z,8020
2018-10-06T13:21:45.944Z,8196
2018-10-06T13:22:55.788Z,8184
2018-10-06T13:24:05.641Z,7992
2018-10-06T13:25:15.485Z,7816
2018-10-06T13:26:25.059Z,7716
2018-10-06T13:27:34.936Z,8128
2018-10-06T13:28:45.060Z,7928
2018-10-06T13:29:55.171Z,8436
2018-10-06T13:31:05.286Z,9828
2018-10-06T13:32:15.133Z,11512
2018-10-06T13:33:25.249Z,10668
2018-10-06T13:34:35.367Z,11256
2018-10-06T13:35:45.212Z,16128
2018-10-06T13:36:55.061Z,18528
2018-10-06T13:38:05.178Z,19328
2018-10-06T13:39:15.037Z,22304
2018-10-06T13:40:24.897Z,15192
2018-10-06T13:41:34.761Z,13360
2018-10-06T13:42:44.882Z,14880
2018-10-06T13:43:54.731Z,11764
2018-10-06T13:45:04.592Z,10352
2018-10-06T13:46:14.709Z,10412
2018-10-06T13:47:24.899Z,10348
2018-10-06T13:48:34.491Z,10020
2018-10-06T13:49:44.617Z,10056
2018-10-06T13:50:54.524Z,10128
2018-10-06T13:52:04.381Z,10260
2018-10-06T13:53:14.500Z,11008
2018-10-06T13:54:24.620Z,11052
2018-10-06T13:55:34.469Z,10860
2018-10-06T13:56:44.094Z,11216
2018-10-06T13:57:54.224Z,10656
2018-10-06T13:59:04.145Z,10732
2018-10-06T14:00:13.731Z,10504
2018-10-06T14:01:23.603Z,11276
2018-10-06T14:02:33.465Z,11744
2018-10-06T14:03:43.316Z,11608
2018-10-06T14:04:53.163Z,12472
2018-10-06T14:06:02.468Z,10896
2018-10-06T14:07:12.048Z,9472
2018-10-06T14:08:21.893Z,9328
2018-10-06T14:09:31.762Z,9620
2018-10-06T14:10:40.807Z,9316
2018-10-06T14:11:50.120Z,10660
2018-10-06T14:12:59.964Z,10448
2018-10-06T14:14:09.538Z,9864
2018-10-06T14:15:18.578Z,13272
2018-10-06T14:16:28.164Z,19328
2018-10-06T14:17:38.010Z,28224
2018-10-06T14:18:48.138Z,21696
2018-10-06T14:19:57.990Z,16224
2018-10-06T14:21:07.838Z,19488
2018-10-06T14:22:17.413Z,16832
2018-10-06T14:23:27.525Z,11176
2018-10-06T14:24:37.104Z,9572
2018-10-06T14:25:46.417Z,9396
2018-10-06T14:26:56.544Z,9120
2018-10-06T14:28:06.404Z,9020
2018-10-06T14:29:15.713Z,8940
2018-10-06T14:30:25.560Z,8936
2018-10-06T14:31:35.696Z,8940
2018-10-06T14:32:45.270Z,8944
2018-10-06T14:33:55.120Z,9096
2018-10-06T14:35:04.700Z,9108
2018-10-06T14:36:14.570Z,8940
2018-10-06T14:37:24.685Z,8888
2018-10-06T14:38:34.815Z,8808
2018-10-06T14:39:44.122Z,8740
2018-10-06T14:40:54.247Z,8768
2018-10-06T14:42:04.094Z,8452
2018-10-06T14:43:13.941Z,8204
2018-10-06T14:44:24.637Z,8280
2018-10-06T14:45:34.647Z,8520
2018-10-06T14:46:44.494Z,9392
2018-10-06T14:47:54.075Z,9152
2018-10-06T14:49:03.387Z,8976
2018-10-06T14:50:13.518Z,9100
2018-10-06T14:51:23.296Z,9264
2018-10-06T14:52:33.156Z,9264
2018-10-06T14:53:43.270Z,8840
2018-10-06T14:54:53.176Z,8668
2018-10-06T14:56:02.766Z,8736
2018-10-06T14:57:12.614Z,8812
2018-10-06T14:58:21.919Z,8716
2018-10-06T14:59:31.777Z,8056
2018-10-06T15:00:41.956Z,7972
2018-10-06T15:01:51.797Z,7872
2018-10-06T15:03:01.377Z,7804
2018-10-06T15:04:11.219Z,7824
2018-10-06T15:05:21.075Z,7876
2018-10-06T15:06:30.931Z,7892
2018-10-06T15:07:40.507Z,7976
2018-10-06T15:08:50.086Z,8220
2018-10-06T15:09:59.934Z,8156
2018-10-06T15:11:09.795Z,7904
2018-10-06T15:12:19.369Z,7856
2018-10-06T15:13:28.945Z,7812
2018-10-06T15:14:38.837Z,8048
2018-10-06T15:15:48.817Z,7828
2018-10-06T15:16:58.694Z,7712
2018-10-06T15:18:08.274Z,7640
2018-10-06T15:19:18.126Z,7272
2018-10-06T15:20:27.163Z,7096
2018-10-06T15:21:37.465Z,6968
2018-10-06T15:22:47.409Z,6924
2018-10-06T15:23:57.260Z,6900
2018-10-06T15:25:07.399Z,6932
2018-10-06T15:26:16.977Z,7260
2018-10-06T15:27:26.821Z,7252
2018-10-06T15:28:36.668Z,6684
2018-10-06T15:29:46.779Z,6304
2018-10-06T15:30:56.662Z,6076
2018-10-06T15:32:06.508Z,5940
2018-10-06T15:33:16.661Z,5880
2018-10-06T15:34:26.509Z,6008
2018-10-06T15:35:36.355Z,6076
2018-10-06T15:36:46.157Z,6112
2018-10-06T15:37:56.790Z,6260
2018-10-06T15:39:06.453Z,6204
2018-10-06T15:40:16.626Z,6012
2018-10-06T15:41:26.206Z,6132
2018-10-06T15:42:35.783Z,6272
2018-10-06T15:43:45.713Z,6876
2018-10-06T15:44:55.292Z,6408
2018-10-06T15:46:05.155Z,6416
2018-10-06T15:47:14.799Z,6840
2018-10-06T15:48:24.652Z,7264
2018-10-06T15:49:34.227Z,6492
2018-10-06T15:50:44.074Z,5616
2018-10-06T15:51:53.646Z,5412
2018-10-06T15:53:03.496Z,5356
2018-10-06T15:54:13.071Z,5376
2018-10-06T15:55:23.189Z,5272
2018-10-06T15:56:32.894Z,5072
2018-10-06T15:57:43.044Z,4908
2018-10-06T15:58:52.621Z,4824
2018-10-06T16:00:01.942Z,4780